Hlavní strana
METAR-TAF:

METAR-TAF

Letiště :

Letiště Seinäjoki

Seinäjoki-Ilmajoki, Finsko

zeměpisná šířka: 62-41-37N, zeměpisná délka: 022-49-55E, výška: 91 m

Aktuální stav počasí

Zpráva byla vytvořena před 34 minutami, v 02:50 UTC
Západoseverozápadní vítr 4 kt
Teplota 2°C
Vlhkost vzduchu 100%
Tlak 1020 hPa
Viditelnost: 0200 m
mlha

METAR: EFSI 180250Z AUTO 30004KT 0200 FG VV002 02/02 Q1020

Čas: 05:24 (03:24 UTC)


TAF: chybějící

Stav a předpovědi počasí z více než 4 000 letišť (zprávy METAR a TAF).

Červené a žluté tečky na mapě představují dostupné meteorologické stanice.

Když kurzor umístíte na tečku, zobrazí se název stanice.

Pak kliknutím zobrazíte stav a předpověď počasí.

Chcete-li změnit mapu, kliknutím na zelené tlačítko se znaménkem +mapu přiblížíte, kliknutím na zelené tlačítko se znaménkem – mapu oddálíte a kliknutím na zelené šipky přejdete na sousední mapy.


METAR-TAF: